Time;durP1;ratioP1;P1;durP2;ratioP2;P2;SDS_P1;SDS_P2;PMS_P1;PMS_P2;Temp;Humidity;BMP_temperature;BMP_pressure;BME280_temperature;BME280_humidity;BME280_pressure;Samples;Min_cycle;Max_cycle;Signal;HPM_P1;HPM_P2
2022/04/17 00:00:10;;;;;;;9.67;6.30;;;16.10;78.10;;;;;;2020280;28;20438;-69
2022/04/17 00:01:09;;;;;;;10.15;6.22;;;16.00;78.10;;;;;;2020281;28;20200;-68
2022/04/17 00:02:08;;;;;;;10.45;6.65;;;16.00;78.20;;;;;;2020320;28;20665;-69
2022/04/17 00:03:06;;;;;;;10.37;6.50;;;16.00;78.20;;;;;;2020259;28;20262;-69
2022/04/17 00:04:05;;;;;;;11.63;6.67;;;16.00;78.60;;;;;;2020241;28;20406;-68
2022/04/17 00:05:05;;;;;;;10.73;6.10;;;16.00;78.20;;;;;;2020395;28;20704;-69
2022/04/17 00:06:05;;;;;;;9.68;6.25;;;16.00;79.40;;;;;;2020363;28;20172;-68
2022/04/17 00:07:03;;;;;;;11.57;6.97;;;16.00;77.40;;;;;;2020187;28;20234;-68
2022/04/17 00:08:02;;;;;;;8.57;6.00;;;16.10;78.50;;;;;;2020265;28;20190;-68
2022/04/17 00:09:01;;;;;;;10.53;6.13;;;15.90;78.60;;;;;;2020280;28;20171;-69
2022/04/17 00:10:00;;;;;;;9.63;6.10;;;16.00;78.00;;;;;;2020234;28;20402;-69
2022/04/17 00:11:01;;;;;;;9.40;6.28;;;16.00;80.10;;;;;;2020316;28;20175;-68
2022/04/17 00:12:01;;;;;;;8.70;5.68;;;16.00;77.90;;;;;;2020134;28;20191;-68
2022/04/17 00:12:59;;;;;;;9.00;6.30;;;16.00;79.80;;;;;;2020288;28;20305;-68
2022/04/17 00:13:59;;;;;;;9.30;6.20;;;16.00;78.60;;;;;;2020339;28;20232;-68
2022/04/17 00:15:00;;;;;;;10.43;6.82;;;16.00;79.70;;;;;;2020275;28;20164;-70
2022/04/17 00:15:59;;;;;;;8.00;5.72;;;16.00;77.90;;;;;;2019635;28;20195;-69
2022/04/17 00:16:57;;;;;;;6.80;5.40;;;16.00;80.70;;;;;;2019586;28;20234;-68
2022/04/17 00:17:56;;;;;;;11.80;6.63;;;16.00;77.40;;;;;;2020150;28;20171;-69
2022/04/17 00:18:54;;;;;;;9.77;6.03;;;16.00;79.60;;;;;;2020293;28;20170;-69
2022/04/17 00:19:53;;;;;;;13.00;6.63;;;16.00;78.20;;;;;;2020451;28;20174;-68
2022/04/17 00:20:51;;;;;;;9.43;5.80;;;16.10;79.50;;;;;;2020267;28;20167;-69
2022/04/17 00:21:50;;;;;;;7.10;5.37;;;16.00;79.30;;;;;;2020350;28;20639;-69
2022/04/17 00:22:48;;;;;;;7.23;5.17;;;16.00;79.80;;;;;;2020284;28;20258;-68
2022/04/17 00:23:47;;;;;;;15.43;7.17;;;16.00;78.50;;;;;;2020294;28;20179;-71
2022/04/17 00:24:45;;;;;;;10.60;6.30;;;16.00;79.80;;;;;;2020259;28;20262;-68
2022/04/17 00:25:44;;;;;;;10.47;6.20;;;16.00;77.30;;;;;;2020448;28;20207;-69
2022/04/17 00:26:42;;;;;;;11.30;5.90;;;16.00;77.40;;;;;;2020234;28;20188;-68
2022/04/17 00:27:41;;;;;;;10.87;6.03;;;16.00;76.70;;;;;;2020504;28;20686;-69
2022/04/17 00:28:39;;;;;;;11.40;6.20;;;15.90;75.90;;;;;;2020339;28;20262;-69
2022/04/17 00:29:38;;;;;;;11.87;6.30;;;15.90;75.90;;;;;;2020240;28;20623;-68
2022/04/17 00:30:36;;;;;;;12.17;6.10;;;16.00;76.30;;;;;;2020303;28;20674;-68
2022/04/17 00:31:35;;;;;;;11.10;6.10;;;16.00;77.10;;;;;;2020257;28;20549;-68
2022/04/17 00:32:35;;;;;;;10.60;6.30;;;15.90;77.00;;;;;;2020423;28;20221;-67
2022/04/17 00:33:33;;;;;;;12.23;7.07;;;16.00;77.30;;;;;;2020309;28;20210;-68
2022/04/17 00:34:32;;;;;;;9.87;5.87;;;15.90;75.40;;;;;;2020193;28;20627;-68
2022/04/17 00:35:30;;;;;;;9.07;6.10;;;15.90;74.90;;;;;;2019559;28;20187;-68
2022/04/17 00:36:29;;;;;;;10.00;5.73;;;15.90;75.40;;;;;;2019589;28;20183;-68
2022/04/17 00:37:27;;;;;;;7.57;5.80;;;15.90;75.80;;;;;;2019172;28;20191;-70
2022/04/17 00:38:26;;;;;;;9.97;5.87;;;15.90;75.90;;;;;;2019764;28;20636;-68
2022/04/17 00:39:26;;;;;;;8.00;5.40;;;15.90;76.10;;;;;;2020247;28;20217;-68
2022/04/17 00:40:24;;;;;;;12.88;7.72;;;15.90;76.60;;;;;;2020230;28;20226;-68
2022/04/17 00:41:23;;;;;;;8.27;6.00;;;15.90;76.70;;;;;;2020355;28;20232;-68
2022/04/17 00:42:21;;;;;;;12.60;6.70;;;15.80;76.40;;;;;;2020407;28;20206;-70
2022/04/17 00:43:33;;;;;;;10.80;6.33;;;15.90;77.10;;;;;;2020343;28;20179;-68
2022/04/17 00:44:32;;;;;;;8.13;5.82;;;16.00;79.40;;;;;;2020298;28;20153;-68
2022/04/17 00:45:31;;;;;;;11.93;6.55;;;15.90;77.80;;;;;;2020097;28;20172;-68
2022/04/17 00:46:30;;;;;;;12.70;6.03;;;16.00;77.20;;;;;;2020371;28;20180;-69
2022/04/17 00:47:29;;;;;;;10.60;6.78;;;15.90;76.90;;;;;;2020079;28;20210;-69
2022/04/17 00:48:27;;;;;;;12.90;6.20;;;15.90;77.50;;;;;;2020241;28;20206;-68
2022/04/17 00:49:26;;;;;;;12.47;6.67;;;15.90;76.90;;;;;;2020247;28;20207;-69
2022/04/17 00:50:25;;;;;;;10.30;5.77;;;15.90;79.40;;;;;;2020255;28;20203;-69
2022/04/17 00:51:24;;;;;;;10.00;5.67;;;15.90;78.20;;;;;;2020340;28;20179;-69
2022/04/17 00:52:23;;;;;;;9.67;6.13;;;15.90;80.60;;;;;;2020113;28;20191;-70
2022/04/17 00:53:22;;;;;;;12.70;6.00;;;16.00;80.50;;;;;;2020187;28;20211;-69
2022/04/17 00:54:23;;;;;;;8.65;5.93;;;16.00;80.90;;;;;;2020053;28;20901;-70
2022/04/17 00:55:22;;;;;;;12.80;7.45;;;15.90;80.20;;;;;;2020138;28;20159;-68
2022/04/17 00:56:22;;;;;;;15.10;7.20;;;16.00;76.30;;;;;;2020075;28;20183;-68
2022/04/17 00:57:22;;;;;;;8.15;6.07;;;15.90;75.90;;;;;;2020109;28;20168;-70
2022/04/17 00:58:21;;;;;;;9.90;6.43;;;15.90;75.90;;;;;;2020164;28;20263;-69
2022/04/17 00:59:21;;;;;;;14.27;6.90;;;15.90;75.50;;;;;;2020295;28;20176;-70
2022/04/17 01:00:20;;;;;;;8.88;6.00;;;15.90;75.70;;;;;;2020003;28;20179;-67
2022/04/17 01:01:19;;;;;;;10.37;6.30;;;15.90;76.10;;;;;;2020258;28;20218;-69
2022/04/17 01:02:17;;;;;;;9.03;5.70;;;15.90;76.30;;;;;;2020083;28;20179;-69
2022/04/17 01:03:17;;;;;;;13.60;6.77;;;15.90;75.00;;;;;;2020106;28;20184;-69
2022/04/17 01:04:16;;;;;;;11.52;6.90;;;15.90;75.70;;;;;;2020166;28;20180;-70
2022/04/17 01:05:14;;;;;;;10.93;6.53;;;15.90;76.50;;;;;;2020131;28;20176;-69
2022/04/17 01:06:12;;;;;;;12.23;6.33;;;15.90;76.50;;;;;;2020303;28;20172;-68
2022/04/17 01:07:12;;;;;;;12.17;6.43;;;15.90;76.70;;;;;;2020102;28;20172;-70
2022/04/17 01:08:12;;;;;;;11.10;7.15;;;15.90;77.90;;;;;;2020148;28;20658;-71
2022/04/17 01:09:11;;;;;;;8.82;6.15;;;15.90;80.10;;;;;;2020052;28;20179;-68
2022/04/17 01:10:10;;;;;;;9.93;6.18;;;16.00;78.60;;;;;;2020261;28;20242;-69
2022/04/17 01:11:10;;;;;;;11.55;6.50;;;15.90;78.80;;;;;;2020781;28;20627;-68
2022/04/17 01:12:10;;;;;;;16.35;7.05;;;16.00;81.10;;;;;;2021547;28;20212;-68
2022/04/17 01:13:08;;;;;;;9.48;5.95;;;16.00;78.50;;;;;;2021558;28;20530;-68
2022/04/17 01:14:08;;;;;;;11.53;7.10;;;15.90;76.50;;;;;;2021530;28;20168;-68
2022/04/17 01:15:07;;;;;;;9.45;6.70;;;15.90;77.00;;;;;;2020846;28;20329;-68
2022/04/17 01:16:06;;;;;;;13.30;6.70;;;15.80;78.80;;;;;;2012945;28;20204;-68
2022/04/17 01:17:06;;;;;;;10.20;6.47;;;16.00;79.40;;;;;;2026857;28;20692;-68
2022/04/17 01:18:05;;;;;;;13.18;7.43;;;15.90;80.80;;;;;;2030451;28;20168;-68
2022/04/17 01:19:12;;;;;;;9.85;6.07;;;15.90;77.90;;;;;;2030833;28;20216;-68
2022/04/17 01:20:11;;;;;;;12.60;7.70;;;15.90;81.60;;;;;;2029783;28;20179;-69
2022/04/17 01:21:10;;;;;;;11.30;6.50;;;15.90;79.10;;;;;;2022267;28;20175;-68
2022/04/17 01:22:11;;;;;;;11.43;7.47;;;16.00;77.60;;;;;;2022085;28;20631;-69
2022/04/17 01:27:03;;;;;;;12.00;7.30;;;15.90;81.20;;;;;;2021578;28;20199;-69
2022/04/17 01:28:02;;;;;;;13.60;7.60;;;15.80;77.40;;;;;;2021615;28;20171;-68
2022/04/17 01:29:00;;;;;;;13.53;7.20;;;15.80;77.20;;;;;;2021377;28;20172;-68
2022/04/17 01:29:59;;;;;;;14.73;8.33;;;15.90;79.00;;;;;;2021254;28;20548;-68
2022/04/17 01:30:57;;;;;;;10.00;7.27;;;15.80;76.70;;;;;;2021469;28;20175;-68
2022/04/17 01:31:56;;;;;;;12.57;7.20;;;15.80;76.00;;;;;;2021308;28;20654;-68
2022/04/17 01:32:55;;;;;;;14.10;8.17;;;15.90;76.60;;;;;;2021438;28;20164;-69
2022/04/17 01:33:53;;;;;;;12.83;7.20;;;15.80;75.60;;;;;;2020748;28;20457;-69
2022/04/17 01:34:52;;;;;;;14.13;7.17;;;15.80;75.20;;;;;;2021054;28;20163;-69
2022/04/17 01:35:50;;;;;;;13.30;7.80;;;15.80;75.20;;;;;;2021468;28;20172;-69
2022/04/17 01:36:50;;;;;;;15.10;7.67;;;15.90;75.70;;;;;;2021335;28;20535;-69
2022/04/17 01:37:49;;;;;;;17.15;8.20;;;15.90;76.50;;;;;;2021344;28;20168;-68
2022/04/17 01:38:47;;;;;;;11.50;7.88;;;15.90;79.60;;;;;;2021511;28;20463;-68
2022/04/17 01:39:47;;;;;;;13.47;8.00;;;15.90;78.70;;;;;;2021310;28;20172;-68
2022/04/17 01:40:45;;;;;;;9.40;8.05;;;15.80;79.80;;;;;;2021278;28;20190;-68
2022/04/17 01:41:44;;;;;;;12.63;8.30;;;15.90;79.00;;;;;;2021411;28;20180;-68
2022/04/17 01:42:43;;;;;;;13.07;7.68;;;15.80;77.50;;;;;;2021452;28;20309;-70
2022/04/17 01:43:41;;;;;;;11.87;7.20;;;15.90;77.10;;;;;;2021496;28;20277;-67
2022/04/17 01:44:40;;;;;;;16.23;7.97;;;15.90;78.40;;;;;;2021457;28;20175;-69
2022/04/17 01:45:38;;;;;;;11.07;7.60;;;15.90;77.80;;;;;;2021486;28;20186;-68
2022/04/17 01:46:37;;;;;;;16.43;8.40;;;15.90;77.40;;;;;;2021303;28;20197;-68
2022/04/17 01:47:35;;;;;;;13.83;8.53;;;15.90;77.40;;;;;;2020596;28;20186;-68
2022/04/17 01:48:34;;;;;;;15.20;9.20;;;15.80;76.70;;;;;;2020759;28;20191;-68
2022/04/17 01:49:32;;;;;;;13.47;8.40;;;15.80;76.70;;;;;;2021249;28;20180;-68
2022/04/17 01:50:32;;;;;;;11.63;8.27;;;15.80;76.40;;;;;;2021330;28;20573;-69
2022/04/17 01:51:37;;;;;;;15.57;8.30;;;15.80;77.00;;;;;;2021266;28;20247;-68
2022/04/17 01:52:36;;;;;;;12.48;8.20;;;15.90;79.40;;;;;;2021235;28;20171;-68
2022/04/17 01:53:34;;;;;;;14.07;8.13;;;15.80;79.00;;;;;;2021432;28;20261;-68
2022/04/17 01:54:33;;;;;;;13.53;7.77;;;15.80;77.80;;;;;;2021017;28;20219;-68
2022/04/17 01:55:31;;;;;;;13.00;8.70;;;15.80;76.40;;;;;;2021502;28;20160;-68
2022/04/17 01:56:30;;;;;;;17.17;8.83;;;15.80;76.50;;;;;;2021234;28;20528;-69
2022/04/17 01:57:28;;;;;;;15.93;8.40;;;15.80;77.70;;;;;;2021288;28;20206;-68
2022/04/17 01:58:27;;;;;;;18.13;9.30;;;15.90;77.60;;;;;;2021162;28;20970;-68
2022/04/17 01:59:26;;;;;;;15.83;8.67;;;15.80;78.40;;;;;;2021124;28;20553;-68
2022/04/17 02:00:25;;;;;;;15.00;8.87;;;15.80;78.90;;;;;;2021146;28;20175;-69
2022/04/17 02:01:24;;;;;;;13.20;8.38;;;16.00;78.70;;;;;;2021144;28;20172;-68
2022/04/17 02:02:22;;;;;;;16.30;7.90;;;15.90;77.20;;;;;;2021165;28;20238;-69
2022/04/17 02:03:21;;;;;;;16.03;9.17;;;15.80;79.60;;;;;;2021190;28;20643;-69
2022/04/17 02:04:20;;;;;;;17.80;9.77;;;15.80;78.50;;;;;;2021214;28;20191;-68
2022/04/17 02:05:18;;;;;;;15.63;8.77;;;15.80;76.50;;;;;;2020494;28;20654;-69
2022/04/17 02:06:17;;;;;;;16.80;9.23;;;15.80;75.80;;;;;;2020410;28;20410;-68
2022/04/17 02:07:16;;;;;;;16.53;9.10;;;15.80;76.00;;;;;;2021193;28;20262;-68
2022/04/17 02:08:16;;;;;;;15.23;9.67;;;15.80;76.30;;;;;;2021194;28;20660;-68
2022/04/17 02:09:15;;;;;;;19.17;9.07;;;15.80;76.80;;;;;;2021223;28;20259;-70
2022/04/17 02:10:19;;;;;;;12.82;7.93;;;15.80;77.50;;;;;;2020450;28;20262;-69
2022/04/17 02:11:18;;;;;;;18.23;8.93;;;15.80;77.40;;;;;;2020556;28;20623;-71
2022/04/17 02:12:17;;;;;;;13.82;8.25;;;15.80;79.70;;;;;;2021021;28;20207;-68
2022/04/17 02:13:16;;;;;;;15.73;9.00;;;15.80;77.50;;;;;;2021132;28;20597;-69
2022/04/17 02:14:14;;;;;;;17.70;9.90;;;15.80;77.80;;;;;;2021149;28;20570;-69
2022/04/17 02:15:14;;;;;;;13.50;8.47;;;15.80;77.10;;;;;;2021243;28;20199;-69
2022/04/17 02:16:20;;;;;;;17.00;10.05;;;15.80;76.50;;;;;;2021025;28;20471;-68
2022/04/17 02:17:18;;;;;;;14.27;8.18;;;15.80;78.10;;;;;;2021141;28;20180;-69
2022/04/17 02:18:16;;;;;;;14.20;8.80;;;15.80;77.80;;;;;;2021193;28;20175;-69
2022/04/17 02:19:15;;;;;;;12.30;8.10;;;15.70;77.00;;;;;;2021201;28;20202;-69
2022/04/17 02:20:13;;;;;;;16.60;8.90;;;15.80;77.90;;;;;;2021019;28;20179;-68
2022/04/17 02:21:13;;;;;;;15.50;8.80;;;15.80;78.10;;;;;;2021145;28;20574;-69
2022/04/17 02:22:11;;;;;;;13.10;8.40;;;15.80;83.60;;;;;;2020630;28;20225;-68
2022/04/17 02:23:10;;;;;;;17.87;9.60;;;15.80;78.20;;;;;;2021083;28;20225;-68
2022/04/17 02:24:08;;;;;;;15.27;8.50;;;15.80;75.80;;;;;;2020878;28;20211;-68
2022/04/17 02:25:07;;;;;;;16.40;8.63;;;15.70;76.60;;;;;;2021216;28;20164;-69
2022/04/17 02:26:06;;;;;;;20.20;9.60;;;15.70;78.90;;;;;;2020935;28;20175;-70
2022/04/17 02:27:05;;;;;;;16.73;9.60;;;15.80;79.40;;;;;;2020923;28;20807;-68
2022/04/17 02:28:03;;;;;;;16.43;8.97;;;15.70;76.40;;;;;;2020983;28;20229;-69
2022/04/17 02:29:02;;;;;;;16.10;8.53;;;15.80;77.70;;;;;;2020961;28;20262;-68
2022/04/17 02:30:01;;;;;;;23.92;9.27;;;15.80;82.90;;;;;;2020943;28;20192;-69
2022/04/17 02:31:00;;;;;;;15.43;8.23;;;15.90;79.90;;;;;;2021137;28;20202;-69
2022/04/17 02:31:59;;;;;;;12.13;7.50;;;15.80;77.10;;;;;;2020887;28;20199;-68
2022/04/17 02:32:57;;;;;;;14.60;8.70;;;15.80;78.30;;;;;;2020861;28;20179;-69
2022/04/17 02:33:57;;;;;;;16.63;8.03;;;15.80;81.10;;;;;;2021101;28;20175;-69
2022/04/17 02:34:56;;;;;;;16.42;9.10;;;15.80;76.10;;;;;;2020970;28;20338;-68
2022/04/17 02:35:54;;;;;;;13.33;8.60;;;15.80;75.80;;;;;;2020979;28;20324;-69
2022/04/17 02:36:53;;;;;;;13.33;8.43;;;15.70;76.80;;;;;;2020796;28;20222;-69
2022/04/17 02:37:51;;;;;;;13.37;8.60;;;15.80;80.50;;;;;;2020955;28;20164;-68
2022/04/17 02:38:50;;;;;;;13.60;8.27;;;15.90;77.70;;;;;;2020960;28;20527;-69
2022/04/17 02:39:48;;;;;;;13.63;8.83;;;15.70;82.40;;;;;;2020280;28;20211;-68
2022/04/17 02:40:47;;;;;;;14.73;9.20;;;15.70;76.20;;;;;;2020310;28;20702;-69
2022/04/17 02:41:46;;;;;;;18.60;8.53;;;15.80;77.00;;;;;;2020920;28;20172;-69
2022/04/17 02:42:44;;;;;;;15.03;8.60;;;15.80;76.70;;;;;;2020864;28;20351;-68
2022/04/17 02:43:43;;;;;;;13.07;8.57;;;15.90;79.20;;;;;;2020869;28;20171;-69
2022/04/17 02:44:41;;;;;;;17.00;7.97;;;15.80;78.60;;;;;;2020842;28;20168;-69
2022/04/17 02:45:40;;;;;;;15.10;8.23;;;15.70;76.50;;;;;;2021010;28;20198;-69
2022/04/17 02:47:55;;;;;;;13.55;8.43;;;15.70;77.70;;;;;;2020881;28;20156;-69
2022/04/17 02:48:54;;;;;;;14.27;8.30;;;15.80;80.00;;;;;;2020157;28;20172;-69
2022/04/17 02:49:52;;;;;;;15.73;8.93;;;15.80;80.30;;;;;;2020210;28;20603;-69
2022/04/17 02:50:51;;;;;;;14.53;8.23;;;15.70;77.20;;;;;;2020891;28;20203;-69
2022/04/17 02:51:49;;;;;;;14.13;8.10;;;15.70;78.70;;;;;;2020748;28;20278;-69
2022/04/17 02:52:48;;;;;;;13.30;7.90;;;15.70;76.40;;;;;;2020822;28;20172;-69
2022/04/17 02:53:46;;;;;;;16.97;9.47;;;15.80;77.00;;;;;;2020954;28;20174;-69
2022/04/17 02:54:45;;;;;;;17.70;9.97;;;15.80;78.10;;;;;;2020699;28;20663;-69
2022/04/17 02:55:44;;;;;;;21.80;9.93;;;15.70;78.30;;;;;;2020881;28;20642;-69
2022/04/17 02:56:43;;;;;;;20.13;9.20;;;15.90;82.20;;;;;;2020032;28;20191;-68
2022/04/17 02:57:42;;;;;;;19.53;9.77;;;15.80;79.40;;;;;;2020248;28;20187;-69
2022/04/17 02:58:40;;;;;;;13.20;8.37;;;15.80;76.50;;;;;;2019945;28;20172;-69
2022/04/17 02:59:39;;;;;;;17.53;9.07;;;15.70;80.50;;;;;;2020135;28;20206;-69
2022/04/17 03:05:48;;;;;;;14.52;7.65;;;15.90;79.60;;;;;;2020909;28;20160;-68
2022/04/17 03:06:47;;;;;;;16.10;8.30;;;15.70;78.00;;;;;;2020636;28;20226;-68
2022/04/17 03:07:45;;;;;;;15.73;9.33;;;15.70;79.40;;;;;;2020827;28;20172;-68
2022/04/17 03:08:45;;;;;;;14.30;8.07;;;15.70;77.00;;;;;;2020646;28;20176;-68
2022/04/17 03:09:43;;;;;;;16.42;8.77;;;15.70;77.40;;;;;;2020694;28;20172;-69
2022/04/17 03:10:48;;;;;;;14.07;8.00;;;15.80;81.50;;;;;;2020623;28;20172;-68
2022/04/17 03:11:47;;;;;;;20.15;9.30;;;15.70;77.00;;;;;;2020622;28;20213;-69
2022/04/17 03:12:45;;;;;;;22.40;8.50;;;15.70;82.80;;;;;;2020820;28;20222;-68
2022/04/17 03:13:44;;;;;;;18.77;9.60;;;15.70;82.80;;;;;;2020782;28;20168;-68
2022/04/17 03:14:46;;;;;;;12.53;8.23;;;15.70;76.50;;;;;;2020849;28;20221;-68
2022/04/17 03:15:44;;;;;;;16.77;8.90;;;15.70;78.10;;;;;;2020804;28;20517;-70
2022/04/17 03:16:43;;;;;;;12.47;7.90;;;15.70;79.90;;;;;;2020489;28;20218;-69
2022/04/17 03:17:41;;;;;;;15.13;8.37;;;15.70;85.00;;;;;;2020741;28;20259;-69
2022/04/17 03:18:40;;;;;;;11.20;8.00;;;15.70;77.20;;;;;;2020609;28;20164;-69
2022/04/17 03:19:38;;;;;;;13.33;7.70;;;15.70;78.70;;;;;;2020625;28;20529;-69
2022/04/17 03:20:37;;;;;;;13.07;9.00;;;15.70;81.10;;;;;;2020564;28;20529;-68
2022/04/17 03:21:35;;;;;;;14.50;8.50;;;15.70;82.90;;;;;;2020773;28;20183;-68
2022/04/17 03:22:34;;;;;;;16.10;9.40;;;15.70;79.30;;;;;;2020410;28;20183;-69
2022/04/17 03:23:33;;;;;;;16.43;8.50;;;15.70;83.00;;;;;;2020612;28;20195;-68
2022/04/17 03:24:31;;;;;;;14.60;7.70;;;15.60;79.50;;;;;;2020580;28;20292;-68
2022/04/17 03:25:31;;;;;;;13.73;8.40;;;15.70;78.50;;;;;;2019934;28;20306;-68
2022/04/17 03:26:29;;;;;;;10.60;8.13;;;15.80;85.00;;;;;;2019797;28;20261;-69
2022/04/17 03:27:30;;;;;;;18.80;9.77;;;15.70;77.60;;;;;;2020604;28;20172;-69
2022/04/17 03:28:29;;;;;;;21.27;8.50;;;15.70;78.20;;;;;;2019857;28;20268;-69
2022/04/17 03:29:29;;;;;;;14.33;9.50;;;15.70;85.30;;;;;;2019981;28;20180;-69
2022/04/17 03:30:27;;;;;;;16.58;8.60;;;15.60;80.50;;;;;;2020463;28;20553;-69
2022/04/17 03:31:26;;;;;;;12.33;8.23;;;15.70;81.60;;;;;;2020577;28;20175;-69
2022/04/17 03:32:24;;;;;;;16.50;8.20;;;15.70;76.60;;;;;;2020401;28;20554;-68
2022/04/17 03:33:23;;;;;;;13.23;8.47;;;15.70;76.00;;;;;;2020111;28;20171;-68
2022/04/17 03:34:21;;;;;;;14.47;8.67;;;15.60;76.60;;;;;;2020073;28;20179;-69
2022/04/17 03:35:20;;;;;;;11.87;7.70;;;15.70;77.90;;;;;;2020516;28;20267;-68
2022/04/17 03:36:19;;;;;;;20.08;8.45;;;15.60;78.50;;;;;;2020416;28;20167;-68
2022/04/17 03:37:17;;;;;;;15.33;8.87;;;15.60;78.50;;;;;;2019951;28;20194;-68
2022/04/17 03:38:16;;;;;;;13.50;7.97;;;15.60;79.30;;;;;;2020091;28;20179;-68
2022/04/17 03:39:14;;;;;;;15.00;8.10;;;15.70;80.10;;;;;;2020401;28;20176;-68
2022/04/17 03:40:15;;;;;;;14.10;8.07;;;15.70;81.20;;;;;;2020352;28;20163;-69
2022/04/17 03:41:13;;;;;;;14.02;7.78;;;15.60;81.30;;;;;;2020607;28;20179;-68
2022/04/17 03:42:12;;;;;;;21.70;8.87;;;15.60;81.90;;;;;;2020797;28;20647;-68
2022/04/17 03:43:12;;;;;;;16.00;8.27;;;15.60;82.30;;;;;;2020460;28;20221;-68
2022/04/17 03:44:12;;;;;;;14.18;9.30;;;15.70;82.80;;;;;;2020503;28;20425;-68
2022/04/17 03:45:11;;;;;;;11.43;7.22;;;15.60;82.60;;;;;;2020675;28;20179;-68
2022/04/17 03:46:10;;;;;;;15.50;9.13;;;15.60;79.80;;;;;;2020963;28;20184;-68
2022/04/17 03:47:09;;;;;;;18.90;8.23;;;15.70;79.60;;;;;;2020788;28;20175;-68
2022/04/17 03:48:07;;;;;;;13.30;8.30;;;15.60;77.80;;;;;;2020741;28;20233;-69
2022/04/17 03:49:06;;;;;;;16.07;8.33;;;15.70;78.60;;;;;;2020615;28;20210;-69
2022/04/17 03:50:05;;;;;;;13.67;8.60;;;15.60;78.30;;;;;;2020592;28;20211;-69
2022/04/17 03:51:03;;;;;;;13.93;7.70;;;15.60;78.60;;;;;;2020305;28;20182;-69
2022/04/17 03:52:02;;;;;;;12.13;8.20;;;15.60;78.80;;;;;;2020333;28;20207;-69
2022/04/17 03:53:01;;;;;;;14.37;8.10;;;15.60;79.00;;;;;;2020431;28;20172;-69
2022/04/17 03:53:59;;;;;;;14.17;8.83;;;15.60;78.60;;;;;;2020375;28;20279;-68
2022/04/17 03:54:57;;;;;;;14.73;8.60;;;15.70;78.00;;;;;;2020184;28;20252;-69
2022/04/17 03:55:56;;;;;;;13.80;8.20;;;15.60;78.50;;;;;;2020532;28;20175;-69
2022/04/17 03:56:54;;;;;;;12.23;7.53;;;15.60;78.90;;;;;;2020465;28;20194;-69
2022/04/17 03:57:53;;;;;;;13.93;8.47;;;15.60;78.70;;;;;;2019767;28;20179;-68
2022/04/17 03:58:51;;;;;;;13.97;8.07;;;15.60;78.80;;;;;;2019912;28;20171;-68
2022/04/17 03:59:50;;;;;;;14.50;8.73;;;15.60;78.70;;;;;;2020287;28;20168;-68
2022/04/17 04:00:48;;;;;;;14.83;8.63;;;15.60;78.90;;;;;;2020364;28;20191;-68
2022/04/17 04:01:47;;;;;;;15.97;8.47;;;15.60;78.70;;;;;;2020375;28;20630;-68
2022/04/17 04:02:51;;;;;;;11.00;7.70;;;15.60;78.50;;;;;;2020422;28;20600;-68
2022/04/17 04:03:50;;;;;;;14.43;8.85;;;15.60;78.40;;;;;;2020394;28;20148;-68
2022/04/17 04:04:49;;;;;;;15.70;8.83;;;15.60;77.60;;;;;;2020347;28;20172;-68
2022/04/17 04:05:48;;;;;;;16.52;9.07;;;15.60;78.20;;;;;;2020239;28;20406;-68
2022/04/17 04:06:46;;;;;;;20.80;8.77;;;15.60;78.50;;;;;;2021975;28;20211;-67
2022/04/17 04:07:45;;;;;;;14.23;8.67;;;15.60;78.50;;;;;;2029302;28;20235;-68
2022/04/17 04:08:43;;;;;;;12.57;8.33;;;15.60;78.20;;;;;;2029722;28;20194;-68
2022/04/17 04:09:42;;;;;;;22.10;9.90;;;15.60;78.20;;;;;;2030081;28;20243;-68
2022/04/17 04:10:40;;;;;;;15.57;8.67;;;15.60;77.80;;;;;;2029522;28;20198;-68
2022/04/17 04:11:39;;;;;;;15.07;8.60;;;15.60;78.00;;;;;;2022843;28;20175;-68
2022/04/17 04:12:38;;;;;;;15.90;8.67;;;15.60;78.00;;;;;;2021101;28;20179;-68
2022/04/17 04:13:36;;;;;;;17.50;8.17;;;15.60;77.70;;;;;;2021138;28;20266;-68
2022/04/17 04:14:35;;;;;;;16.07;8.90;;;15.60;77.60;;;;;;2020781;28;20416;-69
2022/04/17 04:15:33;;;;;;;20.47;8.77;;;15.60;77.60;;;;;;2020536;28;20199;-68
2022/04/17 04:16:32;;;;;;;15.13;8.70;;;15.60;77.70;;;;;;2020468;28;20203;-68
2022/04/17 04:17:31;;;;;;;17.83;9.70;;;15.60;77.70;;;;;;2020436;28;20191;-69
2022/04/17 04:18:29;;;;;;;16.83;8.83;;;15.70;78.20;;;;;;2020502;28;20203;-68
2022/04/17 04:19:28;;;;;;;19.07;8.27;;;15.60;78.00;;;;;;2020381;28;20545;-68
2022/04/17 04:20:26;;;;;;;15.83;9.30;;;15.60;78.00;;;;;;2020273;28;20410;-68
2022/04/17 04:21:25;;;;;;;14.40;8.60;;;15.60;77.90;;;;;;2020261;28;20176;-68
2022/04/17 04:22:23;;;;;;;15.27;8.80;;;15.60;77.80;;;;;;2020331;28;20182;-68
2022/04/17 04:23:22;;;;;;;16.43;8.90;;;15.60;78.00;;;;;;2020525;28;20211;-68
2022/04/17 04:24:21;;;;;;;15.27;7.70;;;15.60;77.90;;;;;;2020337;28;20183;-68
2022/04/17 04:25:19;;;;;;;17.83;8.57;;;15.60;77.30;;;;;;2020403;28;20631;-68
2022/04/17 04:26:18;;;;;;;17.80;9.07;;;15.60;77.30;;;;;;2020401;28;20179;-68
2022/04/17 04:28:34;;;;;;;13.23;8.60;;;15.60;77.20;;;;;;2020230;28;20250;-68
2022/04/17 04:29:34;;;;;;;11.87;8.50;;;15.60;77.00;;;;;;2020339;28;20164;-68
2022/04/17 04:30:33;;;;;;;19.30;9.80;;;15.60;77.20;;;;;;2019741;28;20415;-67
2022/04/17 04:31:31;;;;;;;14.40;7.70;;;15.60;77.70;;;;;;2019766;28;20186;-67
2022/04/17 04:32:29;;;;;;;15.50;8.63;;;15.60;78.00;;;;;;2020249;28;20606;-68
2022/04/17 04:33:31;;;;;;;11.90;8.40;;;15.60;77.70;;;;;;2020264;28;20168;-68
2022/04/17 04:34:29;;;;;;;16.27;9.40;;;15.60;78.00;;;;;;2020334;28;20164;-68
2022/04/17 04:35:29;;;;;;;17.33;9.40;;;15.60;77.60;;;;;;2020337;28;20666;-68
2022/04/17 04:36:27;;;;;;;16.40;8.90;;;15.60;77.90;;;;;;2020185;28;20192;-68
2022/04/17 04:37:26;;;;;;;14.17;9.33;;;15.60;78.20;;;;;;2020260;28;20187;-68
2022/04/17 04:38:25;;;;;;;16.10;8.80;;;15.60;78.20;;;;;;2020200;28;20179;-68
2022/04/17 04:39:24;;;;;;;14.77;9.30;;;15.60;78.50;;;;;;2020169;28;20477;-68
2022/04/17 04:40:23;;;;;;;20.17;9.10;;;15.60;78.50;;;;;;2020230;28;20164;-68
2022/04/17 04:41:22;;;;;;;16.53;8.80;;;15.60;78.60;;;;;;2020345;28;20196;-68
2022/04/17 04:42:21;;;;;;;15.18;8.80;;;15.60;78.70;;;;;;2020210;28;20572;-68
2022/04/17 04:43:20;;;;;;;13.50;8.93;;;15.60;78.60;;;;;;2020247;28;20257;-68
2022/04/17 04:44:18;;;;;;;15.20;8.53;;;15.60;78.30;;;;;;2020284;28;20249;-68
2022/04/17 04:46:34;;;;;;;19.13;9.10;;;15.60;78.50;;;;;;2022249;28;20643;-68
2022/04/17 04:47:32;;;;;;;13.87;9.23;;;15.50;78.60;;;;;;2022285;28;20160;-68
2022/04/17 04:49:48;;;;;;;15.23;8.30;;;15.60;78.60;;;;;;2022355;28;20164;-68
2022/04/17 04:50:47;;;;;;;14.83;9.20;;;15.60;78.60;;;;;;2022334;28;20602;-68
2022/04/17 04:51:45;;;;;;;19.27;9.83;;;15.60;78.70;;;;;;2022016;28;20484;-68
2022/04/17 04:52:43;;;;;;;16.47;10.33;;;15.60;78.80;;;;;;2022249;28;20223;-68
2022/04/17 04:53:42;;;;;;;14.67;9.33;;;15.60;78.60;;;;;;2021820;28;20179;-69
2022/04/17 04:54:41;;;;;;;21.20;9.98;;;15.60;78.90;;;;;;2021622;28;20737;-69
2022/04/17 04:55:40;;;;;;;18.43;8.90;;;15.60;79.00;;;;;;2021768;28;20175;-68
2022/04/17 04:56:38;;;;;;;13.57;9.07;;;15.60;78.90;;;;;;2021882;28;20192;-68
2022/04/17 04:57:37;;;;;;;15.57;8.97;;;15.60;79.00;;;;;;2021057;28;20546;-68
2022/04/17 04:58:36;;;;;;;13.90;8.43;;;15.60;78.80;;;;;;2021114;28;20228;-68
2022/04/17 04:59:35;;;;;;;15.83;10.50;;;15.60;78.70;;;;;;2021573;28;20247;-68
2022/04/17 05:00:34;;;;;;;17.80;8.50;;;15.60;78.70;;;;;;2021587;28;20198;-68
2022/04/17 05:01:32;;;;;;;20.93;9.63;;;15.60;78.90;;;;;;2021748;28;20537;-67
2022/04/17 05:02:31;;;;;;;16.67;10.10;;;15.60;78.80;;;;;;2021683;28;20218;-68
2022/04/17 05:03:29;;;;;;;16.33;9.03;;;15.60;78.70;;;;;;2021698;28;20186;-67
2022/04/17 05:04:29;;;;;;;15.13;9.27;;;15.60;78.50;;;;;;2021519;28;20202;-68
2022/04/17 05:05:28;;;;;;;16.08;9.20;;;15.60;78.40;;;;;;2021631;28;20172;-68
2022/04/17 05:06:26;;;;;;;14.32;8.70;;;15.60;78.40;;;;;;2021544;28;20191;-67
2022/04/17 05:07:25;;;;;;;14.60;9.60;;;15.60;78.50;;;;;;2021632;28;20190;-68
2022/04/17 05:08:23;;;;;;;13.87;9.07;;;15.60;78.80;;;;;;2020899;28;20198;-68
2022/04/17 05:09:22;;;;;;;14.90;10.00;;;15.60;78.80;;;;;;2021026;28;20352;-68
2022/04/17 05:10:20;;;;;;;16.20;9.30;;;15.60;78.80;;;;;;2021516;28;20179;-68
2022/04/17 05:11:20;;;;;;;18.83;10.20;;;15.50;78.80;;;;;;2021512;28;20184;-69
2022/04/17 05:12:19;;;;;;;14.90;8.38;;;15.50;78.40;;;;;;2021461;28;20736;-68
2022/04/17 05:13:17;;;;;;;15.63;8.77;;;15.60;78.60;;;;;;2021534;28;20176;-69
2022/04/17 05:14:19;;;;;;;16.07;8.53;;;15.60;78.60;;;;;;2021528;28;20418;-68
2022/04/17 05:15:18;;;;;;;16.70;9.93;;;15.60;78.60;;;;;;2021438;28;20172;-69
2022/04/17 05:16:17;;;;;;;17.65;9.38;;;15.60;78.80;;;;;;2021475;28;20179;-68
2022/04/17 05:17:15;;;;;;;15.40;9.37;;;15.60;78.90;;;;;;2021547;28;20174;-69